Time;durP1;ratioP1;P1;durP2;ratioP2;P2;SDS_P1;SDS_P2;PMS_P1;PMS_P2;Temp;Humidity;BMP_temperature;BMP_pressure;BME280_temperature;BME280_humidity;BME280_pressure;Samples;Min_cycle;Max_cycle;Signal;HPM_P1;HPM_P2
2020/12/18 00:01:31;;;;;;;12.18;5.95;;;7.00;95.90;;;;;;5065729;28;20514;-44
2020/12/18 00:03:57;;;;;;;8.13;5.72;;;7.00;96.00;;;;;;5066985;28;20031;-43
2020/12/18 00:06:24;;;;;;;7.35;5.28;;;6.90;95.90;;;;;;5065929;28;20032;-43
2020/12/18 00:08:51;;;;;;;8.93;5.50;;;6.90;96.00;;;;;;5066573;28;20029;-44
2020/12/18 00:11:21;;;;;;;9.52;5.85;;;6.90;96.30;;;;;;5066713;28;20024;-43
2020/12/18 00:13:47;;;;;;;8.93;6.00;;;6.90;96.00;;;;;;5070403;28;20032;-43
2020/12/18 00:16:12;;;;;;;8.75;5.70;;;6.90;96.00;;;;;;5069903;28;20124;-42
2020/12/18 00:18:38;;;;;;;6.60;5.80;;;6.90;96.00;;;;;;5070523;28;20017;-42
2020/12/18 00:21:04;;;;;;;9.50;6.50;;;6.90;96.00;;;;;;5070311;28;20031;-43
2020/12/18 00:23:29;;;;;;;9.57;5.70;;;6.90;96.10;;;;;;5067850;28;20120;-42
2020/12/18 00:25:54;;;;;;;11.70;6.07;;;6.90;96.10;;;;;;5070445;28;20035;-44
2020/12/18 00:28:20;;;;;;;11.77;6.28;;;6.80;96.10;;;;;;5069570;28;20454;-43
2020/12/18 00:30:47;;;;;;;11.60;6.47;;;6.80;96.10;;;;;;5070250;28;20028;-44
2020/12/18 00:33:12;;;;;;;10.18;6.82;;;6.80;96.20;;;;;;5069847;28;20100;-43
2020/12/18 00:35:38;;;;;;;10.38;6.97;;;6.80;96.20;;;;;;5070303;28;20123;-43
2020/12/18 00:38:03;;;;;;;9.88;6.57;;;6.80;96.20;;;;;;5070215;28;20422;-43
2020/12/18 00:40:29;;;;;;;10.13;6.15;;;6.80;96.20;;;;;;5069513;28;20032;-43
2020/12/18 00:42:55;;;;;;;9.05;7.00;;;6.80;96.20;;;;;;5069801;28;20032;-42
2020/12/18 00:45:20;;;;;;;11.65;7.13;;;6.80;96.20;;;;;;5069324;28;20393;-46
2020/12/18 00:47:46;;;;;;;9.98;6.72;;;6.80;96.20;;;;;;5070391;28;20036;-42
2020/12/18 00:50:11;;;;;;;8.98;6.30;;;6.80;96.20;;;;;;5069047;28;20471;-42
2020/12/18 00:52:37;;;;;;;9.85;6.28;;;6.80;96.20;;;;;;5070178;28;20032;-42
2020/12/18 00:55:03;;;;;;;9.48;6.45;;;6.80;96.20;;;;;;5070059;28;20115;-44
2020/12/18 00:57:30;;;;;;;11.68;7.13;;;6.80;96.20;;;;;;5068823;28;20028;-43
2020/12/18 00:59:56;;;;;;;8.95;6.57;;;6.80;96.20;;;;;;5069410;28;20052;-43
2020/12/18 01:02:21;;;;;;;9.30;5.70;;;6.80;96.20;;;;;;5069529;28;20033;-42
2020/12/18 01:04:47;;;;;;;8.43;6.10;;;6.70;96.20;;;;;;5069640;28;20528;-42
2020/12/18 01:07:12;;;;;;;10.77;7.15;;;6.70;96.30;;;;;;5068916;28;20029;-43
2020/12/18 01:09:38;;;;;;;10.85;7.57;;;6.70;96.30;;;;;;5069195;28;20103;-42
2020/12/18 01:12:03;;;;;;;13.07;7.28;;;6.70;96.40;;;;;;5069970;28;20427;-43
2020/12/18 01:14:29;;;;;;;12.48;7.20;;;6.70;96.30;;;;;;5068732;28;20016;-42
2020/12/18 01:16:55;;;;;;;9.40;6.60;;;6.70;96.30;;;;;;5069224;28;20036;-43
2020/12/18 01:19:22;;;;;;;9.88;7.05;;;6.80;96.30;;;;;;5068925;28;20034;-43
2020/12/18 01:21:49;;;;;;;8.48;6.22;;;6.70;96.30;;;;;;5069509;28;20043;-42
2020/12/18 01:24:19;;;;;;;10.02;6.38;;;6.70;96.30;;;;;;5067673;28;20472;-43
2020/12/18 01:26:45;;;;;;;9.55;6.68;;;6.70;96.30;;;;;;5069492;28;20099;-43
2020/12/18 01:29:10;;;;;;;10.02;7.03;;;6.70;96.40;;;;;;5068670;28;20029;-43
2020/12/18 01:31:36;;;;;;;12.18;7.35;;;6.70;96.40;;;;;;5069263;28;20495;-42
2020/12/18 01:34:01;;;;;;;12.93;7.10;;;6.70;96.40;;;;;;5069128;28;20028;-42
2020/12/18 01:36:27;;;;;;;8.95;6.43;;;6.70;96.40;;;;;;5068583;28;20664;-42
2020/12/18 01:38:52;;;;;;;10.90;6.38;;;6.70;96.40;;;;;;5068796;28;20036;-42
2020/12/18 01:41:18;;;;;;;12.73;8.00;;;6.70;96.40;;;;;;5068403;28;20102;-42
2020/12/18 01:43:43;;;;;;;12.07;7.28;;;6.70;96.50;;;;;;5068941;28;20482;-41
2020/12/18 01:46:11;;;;;;;10.63;7.30;;;6.70;96.70;;;;;;5068279;28;20575;-42
2020/12/18 01:48:40;;;;;;;10.02;6.97;;;6.70;96.40;;;;;;5069073;28;20047;-42
2020/12/18 01:51:15;;;;;;;9.68;5.93;;;6.70;96.40;;;;;;5068938;28;20103;-43
2020/12/18 01:53:43;;;;;;;10.05;6.78;;;6.70;96.40;;;;;;5068350;28;20418;-43
2020/12/18 01:56:08;;;;;;;8.95;6.30;;;6.70;96.40;;;;;;5068139;28;20032;-43
2020/12/18 01:58:44;;;;;;;10.98;6.45;;;6.70;96.40;;;;;;5068979;28;20023;-43
2020/12/18 02:01:10;;;;;;;9.35;6.20;;;6.70;96.50;;;;;;5068348;28;20044;-42
2020/12/18 02:03:37;;;;;;;9.32;6.18;;;6.70;96.40;;;;;;5068363;28;20789;-43
2020/12/18 02:06:05;;;;;;;10.77;6.45;;;6.70;96.40;;;;;;5068048;28;20554;-43
2020/12/18 02:08:32;;;;;;;9.98;6.97;;;6.70;96.50;;;;;;5068352;28;20043;-43
2020/12/18 02:11:00;;;;;;;7.82;5.43;;;6.60;96.50;;;;;;5068848;28;20029;-43
2020/12/18 02:13:27;;;;;;;10.45;6.72;;;6.60;96.50;;;;;;5067607;28;20043;-42
2020/12/18 02:15:53;;;;;;;11.50;6.18;;;6.60;96.50;;;;;;5068452;28;20503;-42
2020/12/18 02:18:20;;;;;;;7.28;5.40;;;6.60;96.50;;;;;;5067791;28;20031;-43
2020/12/18 02:20:46;;;;;;;9.88;5.90;;;6.60;96.50;;;;;;5067916;28;20436;-43
2020/12/18 02:23:12;;;;;;;9.23;6.00;;;6.60;96.60;;;;;;5068011;28;20052;-43
2020/12/18 02:25:39;;;;;;;10.27;5.65;;;6.60;96.60;;;;;;5068154;28;20024;-43
2020/12/18 02:28:06;;;;;;;8.00;5.93;;;6.60;96.50;;;;;;5067606;28;20471;-44
2020/12/18 02:30:32;;;;;;;8.90;5.40;;;6.60;96.50;;;;;;5068181;28;20103;-43
2020/12/18 02:33:08;;;;;;;9.77;5.90;;;6.50;96.50;;;;;;5067918;28;20439;-43
2020/12/18 02:35:34;;;;;;;9.52;5.75;;;6.50;96.50;;;;;;5067757;28;20041;-43
2020/12/18 02:38:01;;;;;;;6.65;5.03;;;6.50;96.50;;;;;;5067755;28;20738;-42
2020/12/18 02:40:27;;;;;;;6.88;4.93;;;6.50;96.50;;;;;;5067539;28;20702;-43
2020/12/18 02:42:52;;;;;;;6.97;5.50;;;6.40;96.50;;;;;;5067639;28;20048;-44
2020/12/18 02:45:18;;;;;;;7.72;5.20;;;6.50;96.50;;;;;;5067654;28;20038;-44
2020/12/18 02:47:44;;;;;;;7.20;5.53;;;6.40;96.50;;;;;;5067629;28;20036;-43
2020/12/18 02:50:10;;;;;;;10.00;5.70;;;6.40;96.50;;;;;;5066545;28;20395;-43
2020/12/18 02:52:36;;;;;;;6.57;5.25;;;6.40;96.50;;;;;;5067902;28;20029;-43
2020/12/18 02:55:02;;;;;;;10.90;5.10;;;6.40;96.50;;;;;;5067099;28;20048;-43
2020/12/18 02:57:27;;;;;;;8.23;4.80;;;6.40;96.60;;;;;;5067106;28;20522;-44
2020/12/18 02:59:53;;;;;;;8.90;5.43;;;6.30;96.50;;;;;;5067613;28;20024;-43
2020/12/18 03:02:18;;;;;;;7.75;5.07;;;6.30;96.60;;;;;;5066091;28;20138;-43
2020/12/18 03:04:44;;;;;;;8.73;4.88;;;6.30;96.60;;;;;;5067606;28;20017;-42
2020/12/18 03:07:09;;;;;;;9.75;4.60;;;6.30;96.60;;;;;;5066886;28;20040;-43
2020/12/18 03:09:35;;;;;;;8.85;5.20;;;6.30;96.60;;;;;;5067241;28;20013;-43
2020/12/18 03:12:01;;;;;;;8.05;4.55;;;6.30;96.60;;;;;;5067632;28;20052;-43
2020/12/18 03:14:27;;;;;;;8.35;4.75;;;6.30;96.60;;;;;;5066674;28;20514;-43
2020/12/18 03:16:52;;;;;;;8.35;5.43;;;6.30;96.60;;;;;;5066884;28;20027;-43
2020/12/18 03:19:18;;;;;;;8.98;5.20;;;6.20;96.60;;;;;;5066864;28;20204;-43
2020/12/18 03:21:43;;;;;;;7.47;5.65;;;6.20;96.60;;;;;;5067190;28;20016;-42
2020/12/18 03:24:09;;;;;;;9.50;4.97;;;6.20;96.60;;;;;;5066461;28;20885;-42
2020/12/18 03:26:34;;;;;;;9.15;5.13;;;6.20;96.60;;;;;;5067390;28;20013;-42
2020/12/18 03:29:00;;;;;;;10.52;6.32;;;6.20;96.60;;;;;;5067033;28;20074;-43
2020/12/18 03:31:25;;;;;;;6.53;5.10;;;6.20;96.70;;;;;;5066154;28;20036;-43
2020/12/18 03:33:51;;;;;;;7.05;5.18;;;6.20;96.70;;;;;;5067475;28;20032;-43
2020/12/18 03:36:16;;;;;;;11.20;5.85;;;6.20;96.70;;;;;;5066274;28;20460;-43
2020/12/18 03:38:42;;;;;;;7.13;4.88;;;6.20;96.70;;;;;;5066939;28;20028;-43
2020/12/18 03:41:07;;;;;;;8.68;4.90;;;6.20;96.80;;;;;;5066864;28;20031;-44
2020/12/18 03:43:34;;;;;;;6.05;4.57;;;6.20;96.70;;;;;;5067123;28;20538;-43
2020/12/18 03:46:00;;;;;;;7.95;5.28;;;6.20;96.70;;;;;;5066032;28;20021;-43
2020/12/18 03:48:25;;;;;;;8.18;4.40;;;6.10;96.70;;;;;;5066165;28;20046;-43
2020/12/18 03:50:52;;;;;;;10.98;5.30;;;6.10;96.70;;;;;;5067117;28;20032;-43
2020/12/18 03:53:17;;;;;;;8.88;4.75;;;6.10;96.70;;;;;;5065797;28;20041;-42
2020/12/18 03:55:43;;;;;;;13.10;5.20;;;6.10;96.70;;;;;;5066867;28;20037;-43
2020/12/18 03:58:09;;;;;;;7.35;4.78;;;6.10;96.80;;;;;;5066315;28;20036;-43
2020/12/18 04:00:36;;;;;;;7.05;4.50;;;6.20;96.80;;;;;;5066532;28;20115;-42
2020/12/18 04:03:01;;;;;;;5.95;4.20;;;6.10;96.80;;;;;;5066822;28;20036;-42
2020/12/18 04:05:27;;;;;;;5.80;4.22;;;6.10;96.80;;;;;;5065814;28;20112;-43
2020/12/18 04:07:52;;;;;;;8.77;5.22;;;6.10;96.80;;;;;;5067255;28;20075;-42
2020/12/18 04:10:18;;;;;;;8.88;5.68;;;6.10;97.00;;;;;;5066174;28;20032;-42
2020/12/18 04:12:43;;;;;;;7.78;5.32;;;6.10;96.90;;;;;;5066252;28;20077;-43
2020/12/18 04:15:09;;;;;;;7.03;4.55;;;6.20;96.90;;;;;;5066444;28;20356;-43
2020/12/18 04:17:35;;;;;;;5.97;4.25;;;6.20;96.80;;;;;;5066635;28;20029;-43
2020/12/18 04:20:00;;;;;;;8.20;4.32;;;6.20;96.80;;;;;;5066029;28;20029;-43
2020/12/18 04:22:25;;;;;;;8.07;4.45;;;6.10;96.90;;;;;;5066090;28;20039;-42
2020/12/18 04:24:51;;;;;;;9.48;5.00;;;6.10;96.90;;;;;;5066484;28;20024;-43
2020/12/18 04:27:16;;;;;;;7.32;4.55;;;6.20;96.90;;;;;;5065598;28;20040;-43
2020/12/18 04:29:42;;;;;;;6.43;4.32;;;6.10;96.80;;;;;;5067126;28;20495;-43
2020/12/18 04:32:07;;;;;;;9.80;5.00;;;6.20;96.90;;;;;;5065939;28;20029;-43
2020/12/18 04:34:33;;;;;;;6.38;4.90;;;6.10;96.90;;;;;;5066032;28;20641;-43
2020/12/18 04:36:58;;;;;;;6.82;4.63;;;6.10;96.90;;;;;;5066849;28;20483;-43
2020/12/18 04:39:24;;;;;;;6.97;4.35;;;6.10;96.90;;;;;;5065838;28;20040;-43
2020/12/18 04:41:49;;;;;;;9.13;4.78;;;6.10;96.90;;;;;;5066133;28;20033;-43
2020/12/18 04:44:15;;;;;;;8.88;5.03;;;6.20;96.90;;;;;;5065892;28;20162;-43
2020/12/18 04:46:42;;;;;;;7.22;4.65;;;6.10;97.20;;;;;;5066659;28;20021;-42
2020/12/18 04:49:09;;;;;;;8.35;4.70;;;6.10;96.90;;;;;;5065139;28;20029;-43
2020/12/18 04:51:41;;;;;;;8.23;4.82;;;6.10;96.90;;;;;;5066430;28;20025;-43
2020/12/18 04:54:11;;;;;;;6.13;4.60;;;6.20;96.90;;;;;;5066561;28;20047;-42
2020/12/18 04:56:42;;;;;;;11.95;5.18;;;6.10;96.90;;;;;;5065983;28;20271;-42
2020/12/18 04:59:07;;;;;;;9.07;4.97;;;6.20;97.00;;;;;;5067559;28;20040;-42
2020/12/18 05:01:33;;;;;;;10.30;5.93;;;6.20;96.90;;;;;;5069381;28;20699;-43
2020/12/18 05:04:01;;;;;;;11.43;5.68;;;6.10;97.00;;;;;;5070176;28;20024;-42
2020/12/18 05:06:26;;;;;;;7.07;4.63;;;6.10;96.90;;;;;;5069268;28;20024;-43
2020/12/18 05:08:52;;;;;;;6.45;4.40;;;6.20;97.00;;;;;;5069605;28;20037;-43
2020/12/18 05:11:19;;;;;;;8.27;4.88;;;6.10;96.90;;;;;;5069315;28;20029;-42
2020/12/18 05:13:46;;;;;;;9.55;5.53;;;6.10;97.10;;;;;;5069564;28;20487;-42
2020/12/18 05:16:12;;;;;;;5.93;4.80;;;6.10;97.10;;;;;;5068406;28;20025;-43
2020/12/18 05:18:38;;;;;;;8.05;5.10;;;6.20;97.10;;;;;;5069686;28;20568;-43
2020/12/18 05:21:04;;;;;;;9.23;5.30;;;6.20;97.00;;;;;;5069506;28;20028;-43
2020/12/18 05:23:35;;;;;;;9.63;5.35;;;6.20;97.00;;;;;;5068713;28;20024;-43
2020/12/18 05:26:01;;;;;;;7.13;5.07;;;6.20;97.10;;;;;;5069915;28;20028;-43
2020/12/18 05:28:26;;;;;;;6.45;4.50;;;6.20;97.00;;;;;;5068771;28;20043;-43
2020/12/18 05:30:55;;;;;;;7.10;4.85;;;6.20;97.10;;;;;;5068921;28;20043;-43
2020/12/18 05:33:25;;;;;;;8.80;4.70;;;6.20;97.00;;;;;;5069202;28;20025;-43
2020/12/18 05:35:54;;;;;;;8.88;5.15;;;6.20;97.00;;;;;;5069535;28;20114;-43
2020/12/18 05:38:21;;;;;;;9.20;5.07;;;6.20;97.10;;;;;;5068567;28;20177;-43
2020/12/18 05:40:47;;;;;;;7.47;4.53;;;6.10;97.10;;;;;;5069266;28;20059;-42
2020/12/18 05:43:14;;;;;;;7.50;4.90;;;6.10;97.10;;;;;;5068509;28;20048;-43
2020/12/18 05:45:40;;;;;;;8.70;4.45;;;6.10;97.20;;;;;;5068843;28;20032;-43
2020/12/18 05:48:06;;;;;;;10.48;5.32;;;6.20;97.30;;;;;;5069032;28;20025;-41
2020/12/18 05:50:37;;;;;;;9.98;5.45;;;6.20;97.30;;;;;;5068642;28;20067;-42
2020/12/18 05:53:07;;;;;;;8.52;4.50;;;6.20;97.20;;;;;;5068628;28;20036;-43
2020/12/18 05:55:37;;;;;;;10.82;4.53;;;6.20;97.20;;;;;;5069212;28;20048;-43
2020/12/18 05:58:03;;;;;;;7.28;4.45;;;6.20;97.20;;;;;;5068614;28;20059;-42
2020/12/18 06:00:29;;;;;;;8.73;4.47;;;6.20;97.20;;;;;;5068006;28;20426;-43
2020/12/18 06:02:57;;;;;;;7.43;3.92;;;6.20;97.20;;;;;;5069107;28;20036;-43
2020/12/18 06:05:24;;;;;;;6.25;4.32;;;6.20;97.20;;;;;;5068300;28;20035;-43
2020/12/18 06:07:52;;;;;;;5.95;3.97;;;6.20;97.20;;;;;;5068430;28;20036;-43
2020/12/18 06:10:21;;;;;;;7.57;4.63;;;6.30;97.20;;;;;;5067775;28;20111;-43
2020/12/18 06:12:48;;;;;;;6.82;3.88;;;6.30;97.20;;;;;;5068102;28;20062;-43
2020/12/18 06:15:16;;;;;;;5.40;4.15;;;6.30;97.20;;;;;;5067844;28;20027;-42
2020/12/18 06:17:44;;;;;;;8.15;4.25;;;6.40;97.20;;;;;;5068421;28;20051;-43
2020/12/18 06:20:14;;;;;;;5.22;3.72;;;6.40;97.30;;;;;;5067814;28;20028;-43
2020/12/18 06:22:59;;;;;;;6.75;3.92;;;6.40;97.20;;;;;;5068405;28;20020;-43
2020/12/18 06:25:25;;;;;;;8.00;4.43;;;6.50;97.20;;;;;;5067934;28;20100;-43
2020/12/18 06:27:55;;;;;;;8.38;4.25;;;6.50;97.30;;;;;;5067625;28;20155;-43
2020/12/18 06:30:20;;;;;;;14.32;4.68;;;6.60;97.30;;;;;;5067942;28;20036;-42
2020/12/18 06:32:46;;;;;;;9.95;4.55;;;6.60;97.30;;;;;;5068315;28;20033;-42
2020/12/18 06:35:31;;;;;;;12.27;5.13;;;6.70;97.20;;;;;;5067010;28;20029;-42
2020/12/18 06:38:18;;;;;;;7.57;4.50;;;6.70;97.30;;;;;;5068002;28;20021;-42
2020/12/18 06:40:44;;;;;;;10.13;4.68;;;6.70;97.40;;;;;;5067277;28;20032;-42
2020/12/18 06:43:10;;;;;;;6.38;3.92;;;6.80;97.30;;;;;;5067706;28;20035;-43
2020/12/18 06:45:36;;;;;;;8.50;4.05;;;6.80;97.30;;;;;;5067802;28;20369;-42
2020/12/18 06:48:28;;;;;;;9.63;4.55;;;6.80;97.30;;;;;;5067800;28;20356;-43
2020/12/18 06:50:53;;;;;;;8.18;3.65;;;6.90;97.20;;;;;;5068145;28;20020;-43
2020/12/18 06:53:19;;;;;;;10.07;4.28;;;6.80;97.20;;;;;;5067204;28;20097;-43
2020/12/18 06:55:44;;;;;;;5.50;3.75;;;6.80;97.30;;;;;;5067177;28;20025;-43
2020/12/18 06:58:15;;;;;;;9.88;4.20;;;6.80;97.40;;;;;;5067196;28;20127;-42
2020/12/18 07:00:45;;;;;;;6.47;4.20;;;6.90;97.30;;;;;;5067442;28;20106;-43
2020/12/18 07:03:30;;;;;;;9.27;3.83;;;6.80;97.30;;;;;;5066714;28;20086;-43
2020/12/18 07:06:03;;;;;;;10.38;4.32;;;6.90;97.40;;;;;;5067893;28;20074;-43
2020/12/18 07:08:32;;;;;;;8.25;4.50;;;6.90;97.40;;;;;;5066323;28;20124;-42
2020/12/18 07:11:06;;;;;;;6.40;4.35;;;6.90;97.50;;;;;;5067627;28;20024;-42
2020/12/18 07:13:32;;;;;;;9.45;4.30;;;6.90;97.50;;;;;;5067329;28;20039;-44
2020/12/18 07:16:01;;;;;;;8.98;4.95;;;6.90;97.60;;;;;;5067311;28;20033;-42
2020/12/18 07:18:34;;;;;;;6.78;4.50;;;7.00;97.60;;;;;;5066664;28;20028;-43
2020/12/18 07:21:05;;;;;;;9.77;4.13;;;7.00;97.90;;;;;;5066458;28;20563;-43
2020/12/18 07:23:33;;;;;;;8.85;4.30;;;7.00;97.60;;;;;;5067093;28;20040;-43
2020/12/18 07:25:59;;;;;;;9.18;4.07;;;7.00;97.60;;;;;;5067315;28;20029;-43
2020/12/18 07:28:27;;;;;;;10.07;4.63;;;7.10;97.50;;;;;;5066625;28;20123;-42
2020/12/18 07:30:55;;;;;;;8.10;4.53;;;7.10;97.40;;;;;;5066914;28;20027;-42
2020/12/18 07:33:20;;;;;;;11.50;4.45;;;7.20;97.50;;;;;;5066487;28;20063;-42
2020/12/18 07:35:48;;;;;;;8.25;4.03;;;7.20;97.80;;;;;;5066936;28;20044;-42
2020/12/18 07:38:17;;;;;;;8.25;4.03;;;7.20;97.40;;;;;;5066034;28;20025;-42
2020/12/18 07:40:43;;;;;;;8.20;4.35;;;7.30;97.40;;;;;;5067256;28;20383;-42
2020/12/18 07:43:10;;;;;;;8.07;3.75;;;7.30;97.40;;;;;;5066746;28;20029;-42
2020/12/18 07:45:42;;;;;;;6.82;4.22;;;7.30;97.30;;;;;;5066715;28;20021;-42
2020/12/18 07:48:15;;;;;;;8.27;3.95;;;7.30;97.30;;;;;;5047849;28;20044;-43
2020/12/18 07:50:42;;;;;;;10.65;5.18;;;7.40;97.30;;;;;;5043005;28;20020;-43
2020/12/18 07:53:11;;;;;;;8.23;4.22;;;7.40;97.30;;;;;;5044978;28;20420;-42
2020/12/18 07:55:37;;;;;;;7.45;4.63;;;7.50;97.20;;;;;;5046430;28;20057;-42
2020/12/18 07:58:03;;;;;;;8.93;4.18;;;7.50;97.20;;;;;;5045429;28;20052;-42
2020/12/18 08:00:29;;;;;;;5.90;4.07;;;7.60;97.20;;;;;;5055982;28;20028;-43
2020/12/18 08:02:54;;;;;;;9.73;3.72;;;7.60;97.20;;;;;;5065556;28;20060;-43
2020/12/18 08:05:23;;;;;;;10.15;3.95;;;7.70;97.10;;;;;;5065950;28;20356;-43
2020/12/18 08:07:50;;;;;;;8.02;4.60;;;7.80;97.10;;;;;;5067234;28;20047;-43
2020/12/18 08:10:17;;;;;;;8.50;4.22;;;7.90;97.00;;;;;;5066324;28;20126;-42
2020/12/18 08:12:47;;;;;;;11.20;4.35;;;7.90;96.90;;;;;;5066335;28;20016;-43
2020/12/18 08:15:14;;;;;;;9.68;4.20;;;8.00;96.90;;;;;;5066360;28;20024;-43
2020/12/18 08:17:41;;;;;;;4.82;3.15;;;8.00;96.80;;;;;;5066914;28;20032;-43
2020/12/18 08:20:11;;;;;;;5.63;3.10;;;8.10;96.80;;;;;;5066121;28;20028;-43
2020/12/18 08:22:40;;;;;;;6.70;3.50;;;8.10;96.70;;;;;;5066810;28;20495;-43
2020/12/18 08:25:07;;;;;;;6.32;3.28;;;8.10;96.60;;;;;;5066792;28;20100;-44
2020/12/18 08:27:59;;;;;;;9.23;3.78;;;8.10;96.60;;;;;;5066085;28;20086;-42
2020/12/18 08:30:27;;;;;;;10.32;4.72;;;8.10;96.50;;;;;;5063249;28;20044;-43
2020/12/18 08:32:54;;;;;;;9.40;4.00;;;8.10;96.50;;;;;;5067937;28;20105;-43
2020/12/18 08:35:21;;;;;;;5.18;3.67;;;8.20;96.50;;;;;;5069924;28;20036;-43
2020/12/18 08:37:48;;;;;;;8.73;3.78;;;8.10;96.50;;;;;;5070782;28;20146;-42
2020/12/18 08:40:22;;;;;;;6.47;3.60;;;8.10;96.50;;;;;;5069010;28;20385;-43
2020/12/18 08:43:01;;;;;;;7.63;3.90;;;8.20;96.50;;;;;;5069986;28;20511;-41
2020/12/18 08:45:27;;;;;;;10.30;5.03;;;8.20;96.50;;;;;;5070877;28;20104;-43
2020/12/18 08:47:53;;;;;;;8.00;4.85;;;8.20;96.50;;;;;;5071487;28;20452;-43
2020/12/18 08:50:19;;;;;;;9.43;4.28;;;8.20;96.50;;;;;;5069403;28;20082;-43
2020/12/18 08:52:47;;;;;;;9.50;4.40;;;8.20;96.50;;;;;;5070299;28;20108;-43
2020/12/18 08:55:13;;;;;;;12.45;6.18;;;8.20;96.40;;;;;;5069123;28;20082;-44
2020/12/18 08:57:39;;;;;;;9.25;5.80;;;8.30;96.50;;;;;;5070091;28;20025;-43
2020/12/18 09:00:08;;;;;;;10.23;5.57;;;8.30;96.50;;;;;;5070321;28;20017;-43
2020/12/18 09:02:39;;;;;;;11.82;5.50;;;8.30;96.40;;;;;;5069418;28;20105;-43
2020/12/18 09:05:16;;;;;;;10.90;4.82;;;8.30;96.40;;;;;;5069898;28;20025;-43
2020/12/18 09:07:46;;;;;;;7.70;4.85;;;8.30;96.40;;;;;;5070030;28;20048;-42
2020/12/18 09:10:12;;;;;;;11.70;5.00;;;8.40;96.40;;;;;;5069346;28;20075;-42
2020/12/18 09:12:42;;;;;;;8.30;4.65;;;8.40;96.40;;;;;;5069870;28;20048;-44
2020/12/18 09:15:37;;;;;;;9.25;5.18;;;8.40;96.40;;;;;;5068980;28;20077;-43
2020/12/18 09:18:05;;;;;;;9.13;5.15;;;8.40;96.30;;;;;;5056375;28;20482;-43
2020/12/18 09:20:40;;;;;;;9.88;5.93;;;8.50;96.30;;;;;;5069377;28;20024;-42
2020/12/18 09:23:12;;;;;;;8.48;5.38;;;8.50;96.30;;;;;;5068719;28;20419;-43
2020/12/18 09:25:40;;;;;;;9.85;5.57;;;8.50;96.30;;;;;;5069741;28;20523;-44
2020/12/18 09:28:17;;;;;;;13.57;8.02;;;8.50;96.30;;;;;;5069144;28;20032;-44
2020/12/18 09:30:49;;;;;;;10.70;6.72;;;8.50;96.30;;;;;;5069122;28;20369;-43
2020/12/18 09:33:23;;;;;;;19.15;6.75;;;8.60;96.30;;;;;;5069134;28;20103;-43
2020/12/18 09:35:49;;;;;;;9.10;5.70;;;8.60;96.20;;;;;;5069747;28;20035;-42
2020/12/18 09:38:20;;;;;;;11.32;6.45;;;8.60;96.20;;;;;;5068351;28;20127;-43
2020/12/18 09:40:48;;;;;;;9.88;6.38;;;8.70;96.20;;;;;;5068917;28;20475;-42
2020/12/18 09:43:13;;;;;;;12.43;5.95;;;8.70;96.50;;;;;;5068601;28;20051;-42
2020/12/18 09:45:39;;;;;;;10.07;5.80;;;8.80;96.20;;;;;;5068408;28;20029;-42
2020/12/18 09:48:04;;;;;;;6.57;5.00;;;8.80;96.10;;;;;;5068984;28;20036;-42
2020/12/18 09:50:30;;;;;;;9.95;5.10;;;8.90;96.20;;;;;;5068178;28;20017;-42
2020/12/18 09:52:55;;;;;;;8.55;5.18;;;8.90;96.10;;;;;;5068848;28;20487;-43
2020/12/18 09:55:21;;;;;;;8.85;4.85;;;9.00;96.00;;;;;;5068384;28;20029;-43
2020/12/18 09:57:46;;;;;;;10.45;6.25;;;9.00;96.00;;;;;;5068920;28;20123;-42
2020/12/18 10:00:12;;;;;;;13.40;5.72;;;9.00;95.90;;;;;;5066038;28;20046;-44
2020/12/18 10:02:37;;;;;;;8.15;5.10;;;9.00;95.90;;;;;;5068525;28;20056;-43
2020/12/18 10:05:03;;;;;;;10.43;5.50;;;9.00;96.20;;;;;;5068594;28;20048;-43
2020/12/18 10:07:29;;;;;;;10.10;5.45;;;9.10;96.00;;;;;;5065750;28;20079;-43
2020/12/18 10:09:54;;;;;;;9.60;5.25;;;9.10;96.00;;;;;;5060346;28;20044;-42
2020/12/18 10:12:20;;;;;;;10.82;5.38;;;9.20;95.90;;;;;;5058432;28;20538;-43
2020/12/18 10:14:46;;;;;;;9.07;4.90;;;9.20;95.80;;;;;;5057748;28;20066;-43
2020/12/18 10:17:11;;;;;;;9.30;5.35;;;9.20;95.80;;;;;;5057329;28;20408;-43
2020/12/18 10:19:37;;;;;;;9.70;5.50;;;9.20;95.70;;;;;;5054441;28;20115;-43
2020/12/18 10:22:02;;;;;;;7.68;5.03;;;9.20;95.80;;;;;;5057907;28;20013;-43
2020/12/18 10:24:28;;;;;;;9.50;5.40;;;9.20;95.80;;;;;;5050036;28;20032;-43
2020/12/18 10:26:54;;;;;;;11.30;5.07;;;9.30;95.80;;;;;;5065459;28;20047;-44
2020/12/18 10:29:19;;;;;;;7.57;4.70;;;9.30;95.80;;;;;;5059043;28;20028;-44
2020/12/18 10:31:45;;;;;;;10.00;5.30;;;9.30;95.70;;;;;;5058628;28;20069;-43
2020/12/18 10:34:10;;;;;;;8.27;5.10;;;9.40;95.80;;;;;;5055698;28;20024;-44
2020/12/18 10:36:36;;;;;;;10.50;5.15;;;9.40;95.70;;;;;;5057967;28;20027;-43
2020/12/18 10:39:01;;;;;;;11.52;5.80;;;9.50;95.60;;;;;;5066586;28;20055;-43
2020/12/18 10:41:27;;;;;;;9.38;4.88;;;9.50;95.40;;;;;;5067526;28;20402;-43
2020/12/18 10:43:52;;;;;;;8.43;4.60;;;9.50;95.50;;;;;;5067958;28;20659;-43
2020/12/18 10:46:18;;;;;;;7.32;3.97;;;9.40;95.50;;;;;;5066966;28;20032;-43
2020/12/18 10:48:44;;;;;;;8.75;5.30;;;9.40;95.50;;;;;;5067944;28;20510;-43
2020/12/18 10:51:09;;;;;;;7.20;4.53;;;9.40;95.40;;;;;;5066986;28;20494;-43
2020/12/18 10:53:35;;;;;;;7.85;4.50;;;9.40;95.50;;;;;;5067393;28;20045;-42
2020/12/18 10:56:01;;;;;;;7.10;4.25;;;9.50;95.60;;;;;;5067944;28;20031;-44
2020/12/18 10:58:26;;;;;;;6.97;4.68;;;9.50;95.50;;;;;;5067386;28;20021;-44
2020/12/18 11:00:52;;;;;;;8.20;4.72;;;9.40;95.40;;;;;;5066876;28;20111;-43
2020/12/18 11:03:17;;;;;;;10.13;4.30;;;9.50;95.40;;;;;;5067314;28;20041;-43
2020/12/18 11:05:43;;;;;;;8.15;4.72;;;9.50;95.40;;;;;;5067896;28;20032;-43
2020/12/18 11:08:09;;;;;;;12.00;4.70;;;9.50;95.30;;;;;;5066321;28;20040;-43
2020/12/18 11:10:34;;;;;;;13.57;4.70;;;9.50;95.40;;;;;;5067418;28;20031;-43
2020/12/18 11:13:01;;;;;;;8.63;4.40;;;9.50;95.40;;;;;;5067489;28;20033;-43
2020/12/18 11:15:27;;;;;;;7.57;3.95;;;9.60;95.30;;;;;;5066523;28;20056;-42
2020/12/18 11:17:52;;;;;;;6.75;4.30;;;9.60;95.30;;;;;;5067384;28;20096;-43
2020/12/18 11:20:18;;;;;;;9.63;4.63;;;9.60;95.30;;;;;;5066820;28;20563;-43
2020/12/18 11:22:43;;;;;;;7.05;4.00;;;9.70;95.30;;;;;;5067288;28;20033;-43
2020/12/18 11:25:09;;;;;;;10.27;4.60;;;9.70;95.30;;;;;;5066849;28;20024;-43
2020/12/18 11:27:34;;;;;;;12.25;4.15;;;9.70;95.30;;;;;;5067279;28;20043;-43
2020/12/18 11:30:00;;;;;;;8.18;4.30;;;9.70;95.20;;;;;;5067005;28;20398;-43
2020/12/18 11:32:25;;;;;;;9.57;4.45;;;9.70;95.20;;;;;;5066918;28;20086;-42
2020/12/18 11:34:51;;;;;;;8.43;4.20;;;9.80;95.20;;;;;;5067246;28;20024;-43
2020/12/18 11:37:16;;;;;;;9.07;3.90;;;9.70;95.20;;;;;;5066194;28;20031;-42
2020/12/18 11:39:42;;;;;;;8.73;4.90;;;9.80;95.30;;;;;;5067013;28;20119;-43
2020/12/18 11:42:07;;;;;;;10.05;4.65;;;9.80;95.20;;;;;;5066315;28;20040;-44
2020/12/18 11:44:33;;;;;;;15.55;4.65;;;9.80;95.10;;;;;;5066981;28;20024;-42
2020/12/18 11:46:58;;;;;;;6.57;4.28;;;9.90;95.10;;;;;;5067089;28;20086;-43
2020/12/18 11:49:24;;;;;;;7.85;4.13;;;9.90;95.10;;;;;;5066539;28;20036;-43
2020/12/18 11:51:49;;;;;;;10.32;4.35;;;9.90;95.10;;;;;;5066527;28;20845;-43
2020/12/18 11:54:15;;;;;;;5.55;3.65;;;10.00;94.90;;;;;;5066632;28;20035;-42
2020/12/18 11:56:40;;;;;;;6.90;4.35;;;10.00;95.00;;;;;;5066487;28;20020;-43
2020/12/18 11:59:06;;;;;;;7.88;4.00;;;10.00;94.90;;;;;;5066630;28;20025;-43
2020/12/18 12:01:32;;;;;;;8.20;4.55;;;10.00;94.90;;;;;;5066542;28;20048;-43
2020/12/18 12:03:57;;;;;;;5.93;3.72;;;10.10;94.80;;;;;;5066833;28;20029;-42
2020/12/18 12:06:23;;;;;;;7.93;4.15;;;10.10;94.80;;;;;;5064732;28;20468;-42
2020/12/18 12:08:50;;;;;;;6.75;4.07;;;10.20;94.90;;;;;;5059644;28;20120;-43
2020/12/18 12:11:16;;;;;;;10.95;4.70;;;10.20;94.80;;;;;;5058829;28;20123;-43
2020/12/18 12:13:43;;;;;;;8.43;4.05;;;10.20;94.60;;;;;;5056432;28;20136;-43
2020/12/18 12:16:11;;;;;;;7.60;3.90;;;10.20;94.50;;;;;;5050679;28;20033;-43
2020/12/18 12:18:36;;;;;;;10.32;4.20;;;10.30;94.50;;;;;;5063330;28;20104;-43
2020/12/18 12:21:02;;;;;;;9.32;4.88;;;10.30;94.40;;;;;;5070542;28;20112;-43
2020/12/18 12:23:27;;;;;;;7.78;3.58;;;10.40;94.40;;;;;;5070065;28;20487;-43
2020/12/18 12:25:53;;;;;;;8.63;3.97;;;10.40;94.30;;;;;;5070510;28;20082;-43
2020/12/18 12:28:18;;;;;;;7.47;4.20;;;10.40;94.30;;;;;;5070091;28;20067;-43
2020/12/18 12:30:44;;;;;;;8.70;3.70;;;10.40;94.20;;;;;;5070454;28;20056;-43
2020/12/18 12:33:09;;;;;;;7.30;3.60;;;10.40;94.30;;;;;;5069463;28;20054;-43
2020/12/18 12:35:35;;;;;;;7.45;3.58;;;10.50;94.30;;;;;;5070297;28;20150;-42
2020/12/18 12:38:00;;;;;;;5.55;3.90;;;10.40;94.30;;;;;;5070514;28;20150;-43
2020/12/18 12:40:26;;;;;;;7.82;3.42;;;10.40;94.30;;;;;;5068877;28;20492;-43
2020/12/18 12:42:51;;;;;;;10.77;3.92;;;10.50;94.30;;;;;;5059254;28;20029;-43
2020/12/18 12:45:17;;;;;;;7.13;3.50;;;10.50;94.30;;;;;;5052538;28;20040;-42
2020/12/18 12:47:42;;;;;;;8.43;3.72;;;10.50;94.40;;;;;;5049610;28;20061;-43
2020/12/18 12:50:08;;;;;;;6.43;3.78;;;10.60;94.10;;;;;;5050081;28;20413;-43
2020/12/18 12:52:33;;;;;;;7.35;3.40;;;10.60;94.00;;;;;;5051837;28;20059;-42